Chandler Field
KAXN : now visible

Airfield :











YOU CAN JOIN US ON...

 
LOGIN :

Register | Disclaimer

   EN    FR    IT 

 









Legend :    VFR   Marginal VFR   IFR   Intensive IFR   Very Intensive IFR
Visi :
Ceiling :
>= 8 km
>= 3000ft
5 to 8 km
1000 to 3000 ft
1500m to 5 km
500 to 1000 ft
800 to 1500m
200 to 500 ft
< 800m
< 200 ft
Symbols :   Thunderstorms  Fog  Heavy snow  Heavy precipitations  Wind > 20 kt






- Airport Elevation : 1425 ft


KAXN - Chandler Field

CURRENT METAR :
  • 040553Z AUTO 11006KT 10SM FEW048 FEW110 21/19 A2993 RMK AO2 SLP130 60000 T02060189 10233 20206 402560172 50002

EXPIRED METARs :
  • 040453Z AUTO 12005KT 10SM CLR 21/19 A2994 RMK AO2 SLP134 T02060189
  • 040353Z AUTO 09008KT 10SM CLR 21/19 A2994 RMK AO2 SLP133 T02110189

TAF KAXN
Valid from the 04 at 06:00 until the 05 at 06:00 UTC


040520Z 0406/0506 11010KT 6SM -RA BR SCT030 BKN090
TEMPO 0406/0409 3SM TSRA BR BKN025CB
FM040900 15007KT 6SM -SHRA BR SCT030 BKN080
TEMPO 0409/0413 3SM TSRA BR OVC025CB
FM041400 15009KT P6SM SCT019 BKN035
FM041700 17009KT P6SM FEW015 SCT026
KZMP FIR / North America



MET'MAP, your aeronautical weather chart ! - Copyright ORBIFLY December 2007 - Disclaimer

ORBIFLY MET'MAP TEAM :

Programming & Development : Alexandra Zaïnal
Original concept : Baudouin d'Aumeries
Technical & hardware support : Manuel Goepfert
Assistance : Marc-Olivier Méhu




SOURCES & CREDITS :

   NOAA       Earth
Advisory